sensor_id;sensor_type;location;lat;lon;timestamp;temperature;humidity
16404;DHT22;8311;50.158;8.642;2023-04-03T00:00:23;19.60;44.10
16404;DHT22;8311;50.158;8.642;2023-04-03T00:03:17;19.60;44.80
16404;DHT22;8311;50.158;8.642;2023-04-03T00:06:11;19.60;44.10
16404;DHT22;8311;50.158;8.642;2023-04-03T00:09:04;19.60;44.10
16404;DHT22;8311;50.158;8.642;2023-04-03T00:12:00;19.60;44.10
16404;DHT22;8311;50.158;8.642;2023-04-03T00:14:53;19.60;44.20
16404;DHT22;8311;50.158;8.642;2023-04-03T00:17:47;19.60;44.10
16404;DHT22;8311;50.158;8.642;2023-04-03T00:20:41;19.60;44.10
16404;DHT22;8311;50.158;8.642;2023-04-03T00:23:34;19.60;44.10
16404;DHT22;8311;50.158;8.642;2023-04-03T00:26:27;19.60;44.10
16404;DHT22;8311;50.158;8.642;2023-04-03T00:29:20;19.60;44.80
16404;DHT22;8311;50.158;8.642;2023-04-03T00:32:13;19.60;44.10
16404;DHT22;8311;50.158;8.642;2023-04-03T00:35:09;19.60;44.20
16404;DHT22;8311;50.158;8.642;2023-04-03T00:38:02;19.60;44.10
16404;DHT22;8311;50.158;8.642;2023-04-03T00:40:56;19.60;44.20
16404;DHT22;8311;50.158;8.642;2023-04-03T00:43:50;19.60;44.10
16404;DHT22;8311;50.158;8.642;2023-04-03T00:46:44;19.60;44.10
16404;DHT22;8311;50.158;8.642;2023-04-03T00:49:38;19.60;44.10
16404;DHT22;8311;50.158;8.642;2023-04-03T00:52:34;19.60;44.10
16404;DHT22;8311;50.158;8.642;2023-04-03T00:55:27;19.50;44.10
16404;DHT22;8311;50.158;8.642;2023-04-03T00:58:25;19.60;44.10
16404;DHT22;8311;50.158;8.642;2023-04-03T01:01:23;19.50;44.10
16404;DHT22;8311;50.158;8.642;2023-04-03T01:04:27;19.60;44.20
16404;DHT22;8311;50.158;8.642;2023-04-03T01:07:22;19.50;44.10
16404;DHT22;8311;50.158;8.642;2023-04-03T01:10:18;19.50;44.10
16404;DHT22;8311;50.158;8.642;2023-04-03T01:13:22;19.50;44.10
16404;DHT22;8311;50.158;8.642;2023-04-03T01:16:17;19.50;44.10
16404;DHT22;8311;50.158;8.642;2023-04-03T01:19:14;19.50;44.10
16404;DHT22;8311;50.158;8.642;2023-04-03T01:22:15;19.50;44.10
16404;DHT22;8311;50.158;8.642;2023-04-03T01:25:12;19.50;44.10
16404;DHT22;8311;50.158;8.642;2023-04-03T01:28:10;19.50;44.10
16404;DHT22;8311;50.158;8.642;2023-04-03T01:31:10;19.50;44.10
16404;DHT22;8311;50.158;8.642;2023-04-03T01:34:08;19.50;44.10
16404;DHT22;8311;50.158;8.642;2023-04-03T01:37:01;19.50;44.10
16404;DHT22;8311;50.158;8.642;2023-04-03T01:39:55;19.50;44.10
16404;DHT22;8311;50.158;8.642;2023-04-03T01:42:47;19.50;44.10
16404;DHT22;8311;50.158;8.642;2023-04-03T01:45:41;19.50;44.10
16404;DHT22;8311;50.158;8.642;2023-04-03T01:48:34;19.50;44.10
16404;DHT22;8311;50.158;8.642;2023-04-03T01:51:30;19.50;44.10
16404;DHT22;8311;50.158;8.642;2023-04-03T01:54:23;19.50;44.10
16404;DHT22;8311;50.158;8.642;2023-04-03T01:57:17;19.50;44.10
16404;DHT22;8311;50.158;8.642;2023-04-03T02:00:10;19.50;44.10
16404;DHT22;8311;50.158;8.642;2023-04-03T02:03:03;19.50;44.10
16404;DHT22;8311;50.158;8.642;2023-04-03T02:05:58;19.50;44.10
16404;DHT22;8311;50.158;8.642;2023-04-03T02:08:53;19.50;44.10
16404;DHT22;8311;50.158;8.642;2023-04-03T02:11:47;19.50;44.10
16404;DHT22;8311;50.158;8.642;2023-04-03T02:14:39;19.50;44.10
16404;DHT22;8311;50.158;8.642;2023-04-03T02:17:32;19.50;44.10
16404;DHT22;8311;50.158;8.642;2023-04-03T02:20:25;19.50;44.10
16404;DHT22;8311;50.158;8.642;2023-04-03T02:23:18;19.50;44.10
16404;DHT22;8311;50.158;8.642;2023-04-03T02:26:14;19.50;44.10
16404;DHT22;8311;50.158;8.642;2023-04-03T02:29:08;19.50;44.10
16404;DHT22;8311;50.158;8.642;2023-04-03T02:32:01;19.50;44.10
16404;DHT22;8311;50.158;8.642;2023-04-03T02:34:54;19.50;44.10
16404;DHT22;8311;50.158;8.642;2023-04-03T02:37:46;19.50;44.10
16404;DHT22;8311;50.158;8.642;2023-04-03T02:40:40;19.50;44.10
16404;DHT22;8311;50.158;8.642;2023-04-03T02:43:34;19.50;44.10
16404;DHT22;8311;50.158;8.642;2023-04-03T02:46:27;19.50;44.10
16404;DHT22;8311;50.158;8.642;2023-04-03T02:49:20;19.50;44.10
16404;DHT22;8311;50.158;8.642;2023-04-03T02:52:14;19.50;44.10
16404;DHT22;8311;50.158;8.642;2023-04-03T02:55:07;19.50;44.10
16404;DHT22;8311;50.158;8.642;2023-04-03T02:58:00;19.50;44.10
16404;DHT22;8311;50.158;8.642;2023-04-03T03:00:55;19.50;44.10
16404;DHT22;8311;50.158;8.642;2023-04-03T03:03:49;19.50;44.10
16404;DHT22;8311;50.158;8.642;2023-04-03T03:06:41;19.50;44.10
16404;DHT22;8311;50.158;8.642;2023-04-03T03:09:35;19.50;44.10
16404;DHT22;8311;50.158;8.642;2023-04-03T03:12:28;19.50;44.10
16404;DHT22;8311;50.158;8.642;2023-04-03T03:15:23;19.50;44.00
16404;DHT22;8311;50.158;8.642;2023-04-03T03:18:18;19.50;44.10
16404;DHT22;8311;50.158;8.642;2023-04-03T03:21:11;19.50;44.00
16404;DHT22;8311;50.158;8.642;2023-04-03T03:24:05;19.50;44.10
16404;DHT22;8311;50.158;8.642;2023-04-03T03:26:58;19.50;44.10
16404;DHT22;8311;50.158;8.642;2023-04-03T03:29:51;19.50;44.10
16404;DHT22;8311;50.158;8.642;2023-04-03T03:32:45;19.50;44.10
16404;DHT22;8311;50.158;8.642;2023-04-03T03:35:40;19.50;44.10
16404;DHT22;8311;50.158;8.642;2023-04-03T03:38:34;19.50;44.00
16404;DHT22;8311;50.158;8.642;2023-04-03T03:41:26;19.50;44.10
16404;DHT22;8311;50.158;8.642;2023-04-03T03:44:20;19.50;44.10
16404;DHT22;8311;50.158;8.642;2023-04-03T03:47:13;19.50;44.00
16404;DHT22;8311;50.158;8.642;2023-04-03T03:50:06;19.50;44.10
16404;DHT22;8311;50.158;8.642;2023-04-03T03:53:02;19.50;44.10
16404;DHT22;8311;50.158;8.642;2023-04-03T03:55:55;19.50;44.00
16404;DHT22;8311;50.158;8.642;2023-04-03T03:58:49;19.50;44.00
16404;DHT22;8311;50.158;8.642;2023-04-03T04:01:41;19.40;44.00
16404;DHT22;8311;50.158;8.642;2023-04-03T04:04:34;19.50;44.00
16404;DHT22;8311;50.158;8.642;2023-04-03T04:07:27;19.40;44.00
16404;DHT22;8311;50.158;8.642;2023-04-03T04:10:22;19.40;44.00
16404;DHT22;8311;50.158;8.642;2023-04-03T04:13:15;19.40;44.00
16404;DHT22;8311;50.158;8.642;2023-04-03T04:16:08;19.40;44.60
16404;DHT22;8311;50.158;8.642;2023-04-03T04:19:02;19.40;44.00
16404;DHT22;8311;50.158;8.642;2023-04-03T04:21:58;19.40;44.00
16404;DHT22;8311;50.158;8.642;2023-04-03T04:24:51;19.50;44.00
16404;DHT22;8311;50.158;8.642;2023-04-03T04:27:46;19.40;44.00
16404;DHT22;8311;50.158;8.642;2023-04-03T04:30:39;19.40;44.00
16404;DHT22;8311;50.158;8.642;2023-04-03T04:33:33;19.40;44.00
16404;DHT22;8311;50.158;8.642;2023-04-03T04:36:27;19.50;44.00
16404;DHT22;8311;50.158;8.642;2023-04-03T04:39:20;19.40;44.00
16404;DHT22;8311;50.158;8.642;2023-04-03T04:42:13;19.40;44.00
16404;DHT22;8311;50.158;8.642;2023-04-03T04:45:10;19.40;44.00
16404;DHT22;8311;50.158;8.642;2023-04-03T04:48:04;19.40;44.00
16404;DHT22;8311;50.158;8.642;2023-04-03T04:50:58;19.40;44.00
16404;DHT22;8311;50.158;8.642;2023-04-03T04:53:51;19.40;44.00
16404;DHT22;8311;50.158;8.642;2023-04-03T04:56:46;19.40;44.00
16404;DHT22;8311;50.158;8.642;2023-04-03T04:59:39;19.40;43.90
16404;DHT22;8311;50.158;8.642;2023-04-03T05:02:34;19.40;44.00
16404;DHT22;8311;50.158;8.642;2023-04-03T05:05:27;19.40;44.00
16404;DHT22;8311;50.158;8.642;2023-04-03T05:08:21;19.40;43.90
16404;DHT22;8311;50.158;8.642;2023-04-03T05:11:14;19.40;43.90
16404;DHT22;8311;50.158;8.642;2023-04-03T05:14:07;19.40;43.90
16404;DHT22;8311;50.158;8.642;2023-04-03T05:17:01;19.40;44.00
16404;DHT22;8311;50.158;8.642;2023-04-03T05:19:55;19.40;44.00
16404;DHT22;8311;50.158;8.642;2023-04-03T05:22:48;19.40;43.90
16404;DHT22;8311;50.158;8.642;2023-04-03T05:25:41;19.40;43.90
16404;DHT22;8311;50.158;8.642;2023-04-03T05:28:36;19.40;43.90
16404;DHT22;8311;50.158;8.642;2023-04-03T05:31:28;19.40;43.90
16404;DHT22;8311;50.158;8.642;2023-04-03T05:34:22;19.40;43.90
16404;DHT22;8311;50.158;8.642;2023-04-03T05:37:16;19.40;43.90
16404;DHT22;8311;50.158;8.642;2023-04-03T05:40:10;19.40;44.60
16404;DHT22;8311;50.158;8.642;2023-04-03T05:43:04;19.40;43.90
16404;DHT22;8311;50.158;8.642;2023-04-03T05:45:58;19.40;43.90
16404;DHT22;8311;50.158;8.642;2023-04-03T05:48:52;19.40;44.00
16404;DHT22;8311;50.158;8.642;2023-04-03T05:51:45;19.40;43.90
16404;DHT22;8311;50.158;8.642;2023-04-03T05:54:39;19.40;44.00
16404;DHT22;8311;50.158;8.642;2023-04-03T05:57:32;19.40;43.90
16404;DHT22;8311;50.158;8.642;2023-04-03T06:00:25;19.30;43.90
16404;DHT22;8311;50.158;8.642;2023-04-03T06:03:20;19.30;43.90
16404;DHT22;8311;50.158;8.642;2023-04-03T06:06:13;19.30;43.90
16404;DHT22;8311;50.158;8.642;2023-04-03T06:09:07;19.30;43.90
16404;DHT22;8311;50.158;8.642;2023-04-03T06:12:01;19.30;43.90
16404;DHT22;8311;50.158;8.642;2023-04-03T06:14:55;19.30;43.90
16404;DHT22;8311;50.158;8.642;2023-04-03T06:17:47;19.40;43.90
16404;DHT22;8311;50.158;8.642;2023-04-03T06:20:41;19.30;43.90
16404;DHT22;8311;50.158;8.642;2023-04-03T06:23:33;19.30;43.90
16404;DHT22;8311;50.158;8.642;2023-04-03T06:26:28;19.40;43.90
16404;DHT22;8311;50.158;8.642;2023-04-03T06:29:22;19.30;43.90
16404;DHT22;8311;50.158;8.642;2023-04-03T06:32:16;19.40;43.90
16404;DHT22;8311;50.158;8.642;2023-04-03T06:35:10;19.30;43.90
16404;DHT22;8311;50.158;8.642;2023-04-03T06:38:03;19.30;43.90
16404;DHT22;8311;50.158;8.642;2023-04-03T06:41:01;19.30;43.90
16404;DHT22;8311;50.158;8.642;2023-04-03T06:43:55;19.40;44.60
16404;DHT22;8311;50.158;8.642;2023-04-03T06:46:51;19.30;43.90
16404;DHT22;8311;50.158;8.642;2023-04-03T06:49:46;19.30;43.90
16404;DHT22;8311;50.158;8.642;2023-04-03T06:52:40;19.40;43.90
16404;DHT22;8311;50.158;8.642;2023-04-03T06:55:34;19.30;43.90
16404;DHT22;8311;50.158;8.642;2023-04-03T06:58:27;19.30;43.90
16404;DHT22;8311;50.158;8.642;2023-04-03T07:01:20;19.30;43.90
16404;DHT22;8311;50.158;8.642;2023-04-03T07:04:16;19.30;43.90
16404;DHT22;8311;50.158;8.642;2023-04-03T07:07:10;19.30;43.90
16404;DHT22;8311;50.158;8.642;2023-04-03T07:10:04;19.30;43.90
16404;DHT22;8311;50.158;8.642;2023-04-03T07:12:58;19.30;43.90
16404;DHT22;8311;50.158;8.642;2023-04-03T07:15:51;19.30;43.90
16404;DHT22;8311;50.158;8.642;2023-04-03T07:18:44;19.30;43.90
16404;DHT22;8311;50.158;8.642;2023-04-03T07:21:39;19.30;43.80
16404;DHT22;8311;50.158;8.642;2023-04-03T07:24:33;19.30;43.90
16404;DHT22;8311;50.158;8.642;2023-04-03T07:27:28;19.30;43.90
16404;DHT22;8311;50.158;8.642;2023-04-03T07:30:20;19.30;43.80
16404;DHT22;8311;50.158;8.642;2023-04-03T07:33:15;19.30;43.80
16404;DHT22;8311;50.158;8.642;2023-04-03T07:36:10;19.30;43.80
16404;DHT22;8311;50.158;8.642;2023-04-03T07:39:05;19.30;43.80
16404;DHT22;8311;50.158;8.642;2023-04-03T07:41:59;19.30;43.80
16404;DHT22;8311;50.158;8.642;2023-04-03T07:44:54;19.30;43.80
16404;DHT22;8311;50.158;8.642;2023-04-03T07:47:47;19.30;43.80
16404;DHT22;8311;50.158;8.642;2023-04-03T07:50:41;19.30;43.80
16404;DHT22;8311;50.158;8.642;2023-04-03T07:53:35;19.30;43.80
16404;DHT22;8311;50.158;8.642;2023-04-03T07:56:29;19.30;43.80
16404;DHT22;8311;50.158;8.642;2023-04-03T07:59:22;19.30;43.80
16404;DHT22;8311;50.158;8.642;2023-04-03T08:02:15;19.30;43.80
16404;DHT22;8311;50.158;8.642;2023-04-03T08:05:08;19.30;43.80
16404;DHT22;8311;50.158;8.642;2023-04-03T08:08:02;19.30;43.80
16404;DHT22;8311;50.158;8.642;2023-04-03T08:10:55;19.30;43.80
16404;DHT22;8311;50.158;8.642;2023-04-03T08:13:50;19.30;43.80
16404;DHT22;8311;50.158;8.642;2023-04-03T08:16:46;19.30;43.90
16404;DHT22;8311;50.158;8.642;2023-04-03T08:19:40;19.40;43.90
16404;DHT22;8311;50.158;8.642;2023-04-03T08:22:34;19.30;43.90
16404;DHT22;8311;50.158;8.642;2023-04-03T08:25:28;19.30;43.90
16404;DHT22;8311;50.158;8.642;2023-04-03T08:28:22;19.30;43.90
16404;DHT22;8311;50.158;8.642;2023-04-03T08:31:18;19.30;43.90
16404;DHT22;8311;50.158;8.642;2023-04-03T08:34:12;19.30;43.90
16404;DHT22;8311;50.158;8.642;2023-04-03T08:37:06;19.30;43.90
16404;DHT22;8311;50.158;8.642;2023-04-03T08:39:59;19.40;43.90
16404;DHT22;8311;50.158;8.642;2023-04-03T08:43:03;19.30;43.90
16404;DHT22;8311;50.158;8.642;2023-04-03T08:46:06;19.40;43.90
16404;DHT22;8311;50.158;8.642;2023-04-03T08:49:04;19.40;44.00
16404;DHT22;8311;50.158;8.642;2023-04-03T08:52:10;19.40;43.90
16404;DHT22;8311;50.158;8.642;2023-04-03T08:55:07;19.30;43.90
16404;DHT22;8311;50.158;8.642;2023-04-03T08:58:06;19.30;43.90
16404;DHT22;8311;50.158;8.642;2023-04-03T09:01:02;19.30;43.90
16404;DHT22;8311;50.158;8.642;2023-04-03T09:03:56;19.30;43.90
16404;DHT22;8311;50.158;8.642;2023-04-03T09:06:54;19.30;43.90
16404;DHT22;8311;50.158;8.642;2023-04-03T09:09:48;19.30;43.90
16404;DHT22;8311;50.158;8.642;2023-04-03T09:12:46;19.30;43.90
16404;DHT22;8311;50.158;8.642;2023-04-03T09:15:44;19.40;44.00
16404;DHT22;8311;50.158;8.642;2023-04-03T09:18:42;19.40;44.00
16404;DHT22;8311;50.158;8.642;2023-04-03T09:21:39;19.30;44.00
16404;DHT22;8311;50.158;8.642;2023-04-03T09:24:35;19.30;44.00
16404;DHT22;8311;50.158;8.642;2023-04-03T09:27:30;19.30;44.00
16404;DHT22;8311;50.158;8.642;2023-04-03T09:30:24;19.30;44.00
16404;DHT22;8311;50.158;8.642;2023-04-03T09:33:18;19.30;44.00
16404;DHT22;8311;50.158;8.642;2023-04-03T09:36:13;19.30;44.00
16404;DHT22;8311;50.158;8.642;2023-04-03T09:39:11;19.30;44.00
16404;DHT22;8311;50.158;8.642;2023-04-03T09:42:14;19.30;44.00
16404;DHT22;8311;50.158;8.642;2023-04-03T09:45:22;19.30;44.00
16404;DHT22;8311;50.158;8.642;2023-04-03T09:48:17;19.30;44.00
16404;DHT22;8311;50.158;8.642;2023-04-03T09:51:15;19.30;44.00
16404;DHT22;8311;50.158;8.642;2023-04-03T09:54:32;19.40;44.00
16404;DHT22;8311;50.158;8.642;2023-04-03T09:57:32;19.30;44.00
16404;DHT22;8311;50.158;8.642;2023-04-03T10:00:28;19.30;44.00
16404;DHT22;8311;50.158;8.642;2023-04-03T10:03:25;19.30;44.00
16404;DHT22;8311;50.158;8.642;2023-04-03T10:06:23;19.40;44.00
16404;DHT22;8311;50.158;8.642;2023-04-03T10:09:19;19.30;44.00
16404;DHT22;8311;50.158;8.642;2023-04-03T10:12:19;19.30;44.00
16404;DHT22;8311;50.158;8.642;2023-04-03T10:15:15;19.30;44.00
16404;DHT22;8311;50.158;8.642;2023-04-03T10:18:29;19.30;44.00
16404;DHT22;8311;50.158;8.642;2023-04-03T10:21:32;19.30;44.00
16404;DHT22;8311;50.158;8.642;2023-04-03T10:24:36;19.30;44.00
16404;DHT22;8311;50.158;8.642;2023-04-03T10:27:42;19.40;44.00
16404;DHT22;8311;50.158;8.642;2023-04-03T10:30:47;19.40;44.00
16404;DHT22;8311;50.158;8.642;2023-04-03T10:33:53;19.30;44.00
16404;DHT22;8311;50.158;8.642;2023-04-03T10:36:54;19.30;44.10
16404;DHT22;8311;50.158;8.642;2023-04-03T10:39:54;19.30;44.00
16404;DHT22;8311;50.158;8.642;2023-04-03T10:42:52;19.40;44.10
16404;DHT22;8311;50.158;8.642;2023-04-03T10:45:55;19.30;44.00
16404;DHT22;8311;50.158;8.642;2023-04-03T10:49:05;19.30;44.00
16404;DHT22;8311;50.158;8.642;2023-04-03T10:52:04;19.40;44.10
16404;DHT22;8311;50.158;8.642;2023-04-03T10:55:06;19.40;44.10
16404;DHT22;8311;50.158;8.642;2023-04-03T10:58:04;19.30;44.10
16404;DHT22;8311;50.158;8.642;2023-04-03T11:01:06;19.40;44.10
16404;DHT22;8311;50.158;8.642;2023-04-03T11:04:02;19.30;44.10
16404;DHT22;8311;50.158;8.642;2023-04-03T11:07:01;19.40;44.10
16404;DHT22;8311;50.158;8.642;2023-04-03T11:09:57;19.40;44.10
16404;DHT22;8311;50.158;8.642;2023-04-03T11:12:58;19.30;44.10
16404;DHT22;8311;50.158;8.642;2023-04-03T11:15:53;19.40;44.10
16404;DHT22;8311;50.158;8.642;2023-04-03T11:18:52;19.40;44.10
16404;DHT22;8311;50.158;8.642;2023-04-03T11:21:52;19.40;44.10
16404;DHT22;8311;50.158;8.642;2023-04-03T11:24:55;19.40;44.10
16404;DHT22;8311;50.158;8.642;2023-04-03T11:27:55;19.40;44.10
16404;DHT22;8311;50.158;8.642;2023-04-03T11:30:55;19.40;44.10
16404;DHT22;8311;50.158;8.642;2023-04-03T11:34:08;19.40;44.10
16404;DHT22;8311;50.158;8.642;2023-04-03T11:37:06;19.40;44.10
16404;DHT22;8311;50.158;8.642;2023-04-03T11:40:07;19.40;44.10
16404;DHT22;8311;50.158;8.642;2023-04-03T11:43:22;19.40;44.10
16404;DHT22;8311;50.158;8.642;2023-04-03T11:46:17;19.40;44.10
16404;DHT22;8311;50.158;8.642;2023-04-03T11:49:50;19.40;44.10
16404;DHT22;8311;50.158;8.642;2023-04-03T11:52:59;19.40;44.20
16404;DHT22;8311;50.158;8.642;2023-04-03T11:55:55;19.40;44.10
16404;DHT22;8311;50.158;8.642;2023-04-03T11:59:16;19.40;44.20
16404;DHT22;8311;50.158;8.642;2023-04-03T12:02:35;19.40;44.10
16404;DHT22;8311;50.158;8.642;2023-04-03T12:05:45;19.40;44.20
16404;DHT22;8311;50.158;8.642;2023-04-03T12:08:45;19.40;44.20
16404;DHT22;8311;50.158;8.642;2023-04-03T12:11:39;19.40;44.10
16404;DHT22;8311;50.158;8.642;2023-04-03T12:14:33;19.40;44.20
16404;DHT22;8311;50.158;8.642;2023-04-03T12:17:27;19.40;44.20
16404;DHT22;8311;50.158;8.642;2023-04-03T12:20:52;19.40;44.20
16404;DHT22;8311;50.158;8.642;2023-04-03T12:24:02;19.40;44.20
16404;DHT22;8311;50.158;8.642;2023-04-03T12:27:09;19.40;44.20
16404;DHT22;8311;50.158;8.642;2023-04-03T12:30:15;19.40;44.20
16404;DHT22;8311;50.158;8.642;2023-04-03T12:33:23;19.40;44.20
16404;DHT22;8311;50.158;8.642;2023-04-03T12:36:28;19.40;44.20
16404;DHT22;8311;50.158;8.642;2023-04-03T12:39:36;19.40;44.80
16404;DHT22;8311;50.158;8.642;2023-04-03T12:43:05;19.40;44.20
16404;DHT22;8311;50.158;8.642;2023-04-03T12:46:03;19.40;44.20
16404;DHT22;8311;50.158;8.642;2023-04-03T12:48:58;19.40;44.20
16404;DHT22;8311;50.158;8.642;2023-04-03T12:51:53;19.40;44.20
16404;DHT22;8311;50.158;8.642;2023-04-03T12:54:48;19.40;44.20
16404;DHT22;8311;50.158;8.642;2023-04-03T12:57:42;19.40;44.20
16404;DHT22;8311;50.158;8.642;2023-04-03T13:00:35;19.40;44.20
16404;DHT22;8311;50.158;8.642;2023-04-03T13:03:31;19.40;44.30
16404;DHT22;8311;50.158;8.642;2023-04-03T13:06:27;19.40;44.30
16404;DHT22;8311;50.158;8.642;2023-04-03T13:09:23;19.40;44.30
16404;DHT22;8311;50.158;8.642;2023-04-03T13:12:17;19.40;44.30
16404;DHT22;8311;50.158;8.642;2023-04-03T13:15:14;19.40;44.30
16404;DHT22;8311;50.158;8.642;2023-04-03T13:18:22;19.40;44.30
16404;DHT22;8311;50.158;8.642;2023-04-03T13:21:17;19.40;44.30
16404;DHT22;8311;50.158;8.642;2023-04-03T13:24:12;19.40;44.30
16404;DHT22;8311;50.158;8.642;2023-04-03T13:27:11;19.40;44.30
16404;DHT22;8311;50.158;8.642;2023-04-03T13:30:06;19.40;44.20
16404;DHT22;8311;50.158;8.642;2023-04-03T13:33:01;19.40;44.30
16404;DHT22;8311;50.158;8.642;2023-04-03T13:35:57;19.40;44.80
16404;DHT22;8311;50.158;8.642;2023-04-03T13:38:59;19.40;44.30
16404;DHT22;8311;50.158;8.642;2023-04-03T13:41:54;19.40;44.20
16404;DHT22;8311;50.158;8.642;2023-04-03T13:45:08;19.40;44.30
16404;DHT22;8311;50.158;8.642;2023-04-03T13:48:15;19.40;44.30
16404;DHT22;8311;50.158;8.642;2023-04-03T13:51:19;19.40;44.30
16404;DHT22;8311;50.158;8.642;2023-04-03T13:54:19;19.40;44.30
16404;DHT22;8311;50.158;8.642;2023-04-03T13:57:15;19.40;44.30
16404;DHT22;8311;50.158;8.642;2023-04-03T14:00:30;19.40;44.30
16404;DHT22;8311;50.158;8.642;2023-04-03T14:03:29;19.40;44.30
16404;DHT22;8311;50.158;8.642;2023-04-03T14:06:23;19.40;44.30
16404;DHT22;8311;50.158;8.642;2023-04-03T14:09:17;19.30;44.30
16404;DHT22;8311;50.158;8.642;2023-04-03T14:12:16;19.30;44.20
16404;DHT22;8311;50.158;8.642;2023-04-03T14:15:26;19.30;44.20
16404;DHT22;8311;50.158;8.642;2023-04-03T14:18:20;19.40;44.30
16404;DHT22;8311;50.158;8.642;2023-04-03T14:21:15;19.30;44.30
16404;DHT22;8311;50.158;8.642;2023-04-03T14:24:08;19.40;44.30
16404;DHT22;8311;50.158;8.642;2023-04-03T14:27:13;19.40;44.30
16404;DHT22;8311;50.158;8.642;2023-04-03T14:30:12;19.30;44.20
16404;DHT22;8311;50.158;8.642;2023-04-03T14:33:10;19.30;44.30
16404;DHT22;8311;50.158;8.642;2023-04-03T14:36:12;19.30;44.30
16404;DHT22;8311;50.158;8.642;2023-04-03T14:39:07;19.30;44.30
16404;DHT22;8311;50.158;8.642;2023-04-03T14:42:01;19.40;44.30
16404;DHT22;8311;50.158;8.642;2023-04-03T14:44:54;19.30;44.30
16404;DHT22;8311;50.158;8.642;2023-04-03T14:47:49;19.30;44.30
16404;DHT22;8311;50.158;8.642;2023-04-03T14:50:44;19.40;44.30
16404;DHT22;8311;50.158;8.642;2023-04-03T14:53:55;19.40;44.40
16404;DHT22;8311;50.158;8.642;2023-04-03T14:56:49;19.30;44.30
16404;DHT22;8311;50.158;8.642;2023-04-03T14:59:43;19.30;44.30
16404;DHT22;8311;50.158;8.642;2023-04-03T15:02:36;19.30;44.30
16404;DHT22;8311;50.158;8.642;2023-04-03T15:05:31;19.30;44.30
16404;DHT22;8311;50.158;8.642;2023-04-03T15:08:27;19.30;44.30
16404;DHT22;8311;50.158;8.642;2023-04-03T15:11:22;19.30;44.30
16404;DHT22;8311;50.158;8.642;2023-04-03T15:14:15;19.30;44.30
16404;DHT22;8311;50.158;8.642;2023-04-03T15:17:27;19.30;44.30
16404;DHT22;8311;50.158;8.642;2023-04-03T15:20:22;19.40;44.40
16404;DHT22;8311;50.158;8.642;2023-04-03T15:23:16;19.30;44.30
16404;DHT22;8311;50.158;8.642;2023-04-03T15:26:11;19.30;44.40
16404;DHT22;8311;50.158;8.642;2023-04-03T15:29:05;19.30;44.40
16404;DHT22;8311;50.158;8.642;2023-04-03T15:31:58;19.30;44.30
16404;DHT22;8311;50.158;8.642;2023-04-03T15:34:51;19.30;44.40
16404;DHT22;8311;50.158;8.642;2023-04-03T15:37:47;19.30;44.40
16404;DHT22;8311;50.158;8.642;2023-04-03T15:40:41;19.30;44.30
16404;DHT22;8311;50.158;8.642;2023-04-03T15:43:37;19.30;44.40
16404;DHT22;8311;50.158;8.642;2023-04-03T15:46:30;19.30;44.40
16404;DHT22;8311;50.158;8.642;2023-04-03T15:49:25;19.30;44.40
16404;DHT22;8311;50.158;8.642;2023-04-03T15:52:18;19.30;44.40
16404;DHT22;8311;50.158;8.642;2023-04-03T15:55:11;19.30;44.40
16404;DHT22;8311;50.158;8.642;2023-04-03T15:58:04;19.30;44.40
16404;DHT22;8311;50.158;8.642;2023-04-03T16:00:58;19.30;44.40
16404;DHT22;8311;50.158;8.642;2023-04-03T16:03:52;19.30;44.40
16404;DHT22;8311;50.158;8.642;2023-04-03T16:06:45;19.30;44.40
16404;DHT22;8311;50.158;8.642;2023-04-03T16:09:38;19.30;44.40
16404;DHT22;8311;50.158;8.642;2023-04-03T16:12:32;19.30;44.50
16404;DHT22;8311;50.158;8.642;2023-04-03T16:15:25;19.30;44.40
16404;DHT22;8311;50.158;8.642;2023-04-03T16:18:20;19.30;44.40
16404;DHT22;8311;50.158;8.642;2023-04-03T16:21:15;19.30;44.40
16404;DHT22;8311;50.158;8.642;2023-04-03T16:24:09;19.30;44.40
16404;DHT22;8311;50.158;8.642;2023-04-03T16:27:03;19.30;44.40
16404;DHT22;8311;50.158;8.642;2023-04-03T16:29:57;19.30;44.40
16404;DHT22;8311;50.158;8.642;2023-04-03T16:32:51;19.30;44.40
16404;DHT22;8311;50.158;8.642;2023-04-03T16:35:46;19.30;44.40
16404;DHT22;8311;50.158;8.642;2023-04-03T16:38:40;19.30;44.40
16404;DHT22;8311;50.158;8.642;2023-04-03T16:41:33;19.30;44.40
16404;DHT22;8311;50.158;8.642;2023-04-03T16:44:26;19.30;44.40
16404;DHT22;8311;50.158;8.642;2023-04-03T16:47:20;19.30;44.50
16404;DHT22;8311;50.158;8.642;2023-04-03T16:50:13;19.30;44.40
16404;DHT22;8311;50.158;8.642;2023-04-03T16:53:09;19.30;44.40
16404;DHT22;8311;50.158;8.642;2023-04-03T16:56:02;19.30;44.40
16404;DHT22;8311;50.158;8.642;2023-04-03T16:58:55;19.30;44.40
16404;DHT22;8311;50.158;8.642;2023-04-03T17:01:48;19.30;44.50
16404;DHT22;8311;50.158;8.642;2023-04-03T17:04:41;19.30;44.40
16404;DHT22;8311;50.158;8.642;2023-04-03T17:07:34;19.30;44.40
16404;DHT22;8311;50.158;8.642;2023-04-03T17:10:29;19.30;44.50
16404;DHT22;8311;50.158;8.642;2023-04-03T17:13:22;19.30;44.50
16404;DHT22;8311;50.158;8.642;2023-04-03T17:16:16;19.30;44.50
16404;DHT22;8311;50.158;8.642;2023-04-03T17:19:09;19.30;44.50
16404;DHT22;8311;50.158;8.642;2023-04-03T17:22:03;19.30;44.50
16404;DHT22;8311;50.158;8.642;2023-04-03T17:24:56;19.30;44.50
16404;DHT22;8311;50.158;8.642;2023-04-03T17:27:52;19.30;44.50
16404;DHT22;8311;50.158;8.642;2023-04-03T17:30:45;19.30;44.50
16404;DHT22;8311;50.158;8.642;2023-04-03T17:33:38;19.30;44.50
16404;DHT22;8311;50.158;8.642;2023-04-03T17:36:33;19.30;44.50
16404;DHT22;8311;50.158;8.642;2023-04-03T17:39:26;19.30;44.50
16404;DHT22;8311;50.158;8.642;2023-04-03T17:42:27;19.30;44.50
16404;DHT22;8311;50.158;8.642;2023-04-03T17:45:22;19.30;44.50
16404;DHT22;8311;50.158;8.642;2023-04-03T17:48:15;19.20;44.50
16404;DHT22;8311;50.158;8.642;2023-04-03T17:51:10;19.30;44.50
16404;DHT22;8311;50.158;8.642;2023-04-03T17:54:03;19.20;44.50
16404;DHT22;8311;50.158;8.642;2023-04-03T17:56:56;19.30;44.50
16404;DHT22;8311;50.158;8.642;2023-04-03T17:59:50;19.30;44.50
16404;DHT22;8311;50.158;8.642;2023-04-03T18:02:45;19.20;44.50
16404;DHT22;8311;50.158;8.642;2023-04-03T18:05:38;19.30;44.60
16404;DHT22;8311;50.158;8.642;2023-04-03T18:08:34;19.20;44.50
16404;DHT22;8311;50.158;8.642;2023-04-03T18:11:28;19.20;44.50
16404;DHT22;8311;50.158;8.642;2023-04-03T18:14:24;19.30;44.50
16404;DHT22;8311;50.158;8.642;2023-04-03T18:17:20;19.20;44.50
16404;DHT22;8311;50.158;8.642;2023-04-03T18:20:14;19.20;45.10
16404;DHT22;8311;50.158;8.642;2023-04-03T18:23:09;19.30;44.50
16404;DHT22;8311;50.158;8.642;2023-04-03T18:26:02;19.30;44.50
16404;DHT22;8311;50.158;8.642;2023-04-03T18:28:59;19.30;44.50
16404;DHT22;8311;50.158;8.642;2023-04-03T18:31:55;19.20;44.50
16404;DHT22;8311;50.158;8.642;2023-04-03T18:34:50;19.30;44.60
16404;DHT22;8311;50.158;8.642;2023-04-03T18:37:44;19.20;44.50
16404;DHT22;8311;50.158;8.642;2023-04-03T18:40:37;19.30;44.50
16404;DHT22;8311;50.158;8.642;2023-04-03T18:43:32;19.20;44.50
16404;DHT22;8311;50.158;8.642;2023-04-03T18:46:25;19.20;44.50
16404;DHT22;8311;50.158;8.642;2023-04-03T18:49:19;19.20;44.50